sensor_id;sensor_type;location;lat;lon;timestamp;P1;durP1;ratioP1;P2;durP2;ratioP2
41568;SDS011;27283;52.504;13.358;2023-07-02T00:01:24;5.40;;;2.80;;
41568;SDS011;27283;52.504;13.358;2023-07-02T00:03:56;5.43;;;2.70;;
41568;SDS011;27283;52.504;13.358;2023-07-02T00:06:42;4.18;;;2.60;;
41568;SDS011;27283;52.504;13.358;2023-07-02T00:09:15;4.68;;;2.90;;
41568;SDS011;27283;52.504;13.358;2023-07-02T00:11:51;4.40;;;2.80;;
41568;SDS011;27283;52.504;13.358;2023-07-02T00:14:23;6.00;;;2.60;;
41568;SDS011;27283;52.504;13.358;2023-07-02T00:16:59;3.72;;;2.70;;
41568;SDS011;27283;52.504;13.358;2023-07-02T00:19:32;4.45;;;3.45;;
41568;SDS011;27283;52.504;13.358;2023-07-02T00:22:04;5.20;;;3.80;;
41568;SDS011;27283;52.504;13.358;2023-07-02T00:24:36;5.65;;;3.42;;
41568;SDS011;27283;52.504;13.358;2023-07-02T00:27:12;4.10;;;3.30;;
41568;SDS011;27283;52.504;13.358;2023-07-02T00:30:05;4.55;;;3.40;;
41568;SDS011;27283;52.504;13.358;2023-07-02T00:32:38;6.72;;;4.00;;
41568;SDS011;27283;52.504;13.358;2023-07-02T00:35:10;4.65;;;3.58;;
41568;SDS011;27283;52.504;13.358;2023-07-02T00:37:46;6.88;;;4.47;;
41568;SDS011;27283;52.504;13.358;2023-07-02T00:40:18;7.28;;;3.70;;
41568;SDS011;27283;52.504;13.358;2023-07-02T00:42:53;7.60;;;4.10;;
41568;SDS011;27283;52.504;13.358;2023-07-02T00:45:25;9.13;;;4.10;;
41568;SDS011;27283;52.504;13.358;2023-07-02T00:47:58;5.32;;;4.13;;
41568;SDS011;27283;52.504;13.358;2023-07-02T00:50:30;6.97;;;4.63;;
41568;SDS011;27283;52.504;13.358;2023-07-02T00:53:03;5.40;;;4.20;;
41568;SDS011;27283;52.504;13.358;2023-07-02T00:55:35;5.78;;;4.00;;
41568;SDS011;27283;52.504;13.358;2023-07-02T00:58:10;5.85;;;4.70;;
41568;SDS011;27283;52.504;13.358;2023-07-02T01:00:43;11.73;;;5.05;;
41568;SDS011;27283;52.504;13.358;2023-07-02T01:03:35;7.28;;;5.07;;
41568;SDS011;27283;52.504;13.358;2023-07-02T01:06:08;7.10;;;4.88;;
41568;SDS011;27283;52.504;13.358;2023-07-02T01:08:41;7.18;;;4.93;;
41568;SDS011;27283;52.504;13.358;2023-07-02T01:11:13;9.65;;;5.30;;
41568;SDS011;27283;52.504;13.358;2023-07-02T01:13:48;7.97;;;4.88;;
41568;SDS011;27283;52.504;13.358;2023-07-02T01:16:24;8.68;;;5.60;;
41568;SDS011;27283;52.504;13.358;2023-07-02T01:19:00;10.20;;;5.65;;
41568;SDS011;27283;52.504;13.358;2023-07-02T01:21:38;8.15;;;6.15;;
41568;SDS011;27283;52.504;13.358;2023-07-02T01:24:11;10.05;;;6.40;;
41568;SDS011;27283;52.504;13.358;2023-07-02T01:26:43;10.18;;;6.03;;
41568;SDS011;27283;52.504;13.358;2023-07-02T01:29:16;10.82;;;6.38;;
41568;SDS011;27283;52.504;13.358;2023-07-02T01:31:49;11.48;;;6.88;;
41568;SDS011;27283;52.504;13.358;2023-07-02T01:34:22;9.82;;;6.95;;
41568;SDS011;27283;52.504;13.358;2023-07-02T01:36:57;9.10;;;6.78;;
41568;SDS011;27283;52.504;13.358;2023-07-02T01:39:29;10.38;;;7.05;;
41568;SDS011;27283;52.504;13.358;2023-07-02T01:42:08;12.30;;;7.30;;
41568;SDS011;27283;52.504;13.358;2023-07-02T01:44:44;11.23;;;7.78;;
41568;SDS011;27283;52.504;13.358;2023-07-02T01:47:34;10.98;;;7.50;;
41568;SDS011;27283;52.504;13.358;2023-07-02T01:50:07;13.30;;;7.53;;
41568;SDS011;27283;52.504;13.358;2023-07-02T01:52:43;12.48;;;8.05;;
41568;SDS011;27283;52.504;13.358;2023-07-02T01:55:15;11.65;;;8.43;;
41568;SDS011;27283;52.504;13.358;2023-07-02T01:58:12;13.75;;;9.35;;
41568;SDS011;27283;52.504;13.358;2023-07-02T02:00:44;13.25;;;9.85;;
41568;SDS011;27283;52.504;13.358;2023-07-02T02:03:17;14.80;;;9.82;;
41568;SDS011;27283;52.504;13.358;2023-07-02T02:05:50;12.30;;;8.98;;
41568;SDS011;27283;52.504;13.358;2023-07-02T02:08:25;14.02;;;9.30;;
41568;SDS011;27283;52.504;13.358;2023-07-02T02:10:58;13.40;;;9.02;;
41568;SDS011;27283;52.504;13.358;2023-07-02T02:13:31;11.32;;;8.90;;
41568;SDS011;27283;52.504;13.358;2023-07-02T02:16:04;12.25;;;8.68;;
41568;SDS011;27283;52.504;13.358;2023-07-02T02:18:37;11.27;;;8.43;;
41568;SDS011;27283;52.504;13.358;2023-07-02T02:21:09;13.57;;;8.38;;
41568;SDS011;27283;52.504;13.358;2023-07-02T02:23:45;10.77;;;8.52;;
41568;SDS011;27283;52.504;13.358;2023-07-02T02:26:18;14.63;;;8.40;;
41568;SDS011;27283;52.504;13.358;2023-07-02T02:28:51;15.82;;;8.10;;
41568;SDS011;27283;52.504;13.358;2023-07-02T02:31:24;11.80;;;7.93;;
41568;SDS011;27283;52.504;13.358;2023-07-02T02:33:56;13.15;;;8.60;;
41568;SDS011;27283;52.504;13.358;2023-07-02T02:36:30;13.75;;;8.05;;
41568;SDS011;27283;52.504;13.358;2023-07-02T02:39:05;11.32;;;7.70;;
41568;SDS011;27283;52.504;13.358;2023-07-02T02:41:37;12.55;;;7.88;;
41568;SDS011;27283;52.504;13.358;2023-07-02T02:44:09;12.38;;;8.15;;
41568;SDS011;27283;52.504;13.358;2023-07-02T02:46:42;13.05;;;7.68;;
41568;SDS011;27283;52.504;13.358;2023-07-02T02:49:14;12.13;;;7.50;;
41568;SDS011;27283;52.504;13.358;2023-07-02T02:51:46;10.20;;;6.80;;
41568;SDS011;27283;52.504;13.358;2023-07-02T02:54:21;11.40;;;7.38;;
41568;SDS011;27283;52.504;13.358;2023-07-02T02:56:53;10.30;;;7.30;;
41568;SDS011;27283;52.504;13.358;2023-07-02T02:59:26;10.55;;;7.28;;
41568;SDS011;27283;52.504;13.358;2023-07-02T03:01:59;9.95;;;6.93;;
41568;SDS011;27283;52.504;13.358;2023-07-02T03:04:31;18.30;;;7.70;;
41568;SDS011;27283;52.504;13.358;2023-07-02T03:07:04;10.48;;;6.70;;
41568;SDS011;27283;52.504;13.358;2023-07-02T03:09:40;13.30;;;7.13;;
41568;SDS011;27283;52.504;13.358;2023-07-02T03:12:12;9.32;;;6.72;;
41568;SDS011;27283;52.504;13.358;2023-07-02T03:14:45;12.50;;;7.15;;
41568;SDS011;27283;52.504;13.358;2023-07-02T03:17:21;10.85;;;7.10;;
41568;SDS011;27283;52.504;13.358;2023-07-02T03:19:54;10.05;;;6.75;;
41568;SDS011;27283;52.504;13.358;2023-07-02T03:22:27;9.43;;;6.55;;
41568;SDS011;27283;52.504;13.358;2023-07-02T03:25:01;10.43;;;6.63;;
41568;SDS011;27283;52.504;13.358;2023-07-02T03:27:34;10.85;;;6.60;;
41568;SDS011;27283;52.504;13.358;2023-07-02T03:30:09;10.68;;;7.22;;
41568;SDS011;27283;52.504;13.358;2023-07-02T03:32:42;10.35;;;6.60;;
41568;SDS011;27283;52.504;13.358;2023-07-02T03:35:15;11.52;;;6.07;;
41568;SDS011;27283;52.504;13.358;2023-07-02T03:37:47;10.90;;;6.47;;
41568;SDS011;27283;52.504;13.358;2023-07-02T03:40:22;10.38;;;6.13;;
41568;SDS011;27283;52.504;13.358;2023-07-02T03:43:15;9.88;;;6.03;;
41568;SDS011;27283;52.504;13.358;2023-07-02T03:45:54;10.07;;;5.60;;
41568;SDS011;27283;52.504;13.358;2023-07-02T03:48:27;12.45;;;5.82;;
41568;SDS011;27283;52.504;13.358;2023-07-02T03:50:58;8.57;;;5.57;;
41568;SDS011;27283;52.504;13.358;2023-07-02T03:53:33;8.68;;;5.40;;
41568;SDS011;27283;52.504;13.358;2023-07-02T03:56:08;12.00;;;5.47;;
41568;SDS011;27283;52.504;13.358;2023-07-02T03:58:40;8.80;;;5.25;;
41568;SDS011;27283;52.504;13.358;2023-07-02T04:01:13;8.68;;;5.53;;
41568;SDS011;27283;52.504;13.358;2023-07-02T04:03:48;10.93;;;5.10;;
41568;SDS011;27283;52.504;13.358;2023-07-02T04:06:21;11.07;;;4.97;;
41568;SDS011;27283;52.504;13.358;2023-07-02T04:08:53;8.00;;;5.00;;
41568;SDS011;27283;52.504;13.358;2023-07-02T04:11:28;9.32;;;5.13;;
41568;SDS011;27283;52.504;13.358;2023-07-02T04:14:00;8.18;;;4.97;;
41568;SDS011;27283;52.504;13.358;2023-07-02T04:16:33;12.07;;;5.22;;
41568;SDS011;27283;52.504;13.358;2023-07-02T04:19:05;10.55;;;5.43;;
41568;SDS011;27283;52.504;13.358;2023-07-02T04:21:38;7.97;;;4.32;;
41568;SDS011;27283;52.504;13.358;2023-07-02T04:24:11;10.20;;;5.13;;
41568;SDS011;27283;52.504;13.358;2023-07-02T04:26:46;8.68;;;4.47;;
41568;SDS011;27283;52.504;13.358;2023-07-02T04:29:39;13.18;;;4.72;;
41568;SDS011;27283;52.504;13.358;2023-07-02T04:32:11;10.38;;;5.03;;
41568;SDS011;27283;52.504;13.358;2023-07-02T04:34:44;7.05;;;4.53;;
41568;SDS011;27283;52.504;13.358;2023-07-02T04:37:17;10.38;;;4.20;;
41568;SDS011;27283;52.504;13.358;2023-07-02T04:39:51;8.05;;;4.25;;
41568;SDS011;27283;52.504;13.358;2023-07-02T04:42:26;9.20;;;4.40;;
41568;SDS011;27283;52.504;13.358;2023-07-02T04:45:01;7.97;;;3.83;;
41568;SDS011;27283;52.504;13.358;2023-07-02T04:47:34;7.85;;;4.13;;
41568;SDS011;27283;52.504;13.358;2023-07-02T04:50:08;6.90;;;4.38;;
41568;SDS011;27283;52.504;13.358;2023-07-02T04:52:41;14.23;;;4.20;;
41568;SDS011;27283;52.504;13.358;2023-07-02T04:55:13;7.57;;;4.38;;
41568;SDS011;27283;52.504;13.358;2023-07-02T04:57:49;10.20;;;4.30;;
41568;SDS011;27283;52.504;13.358;2023-07-02T05:00:21;6.65;;;3.92;;
41568;SDS011;27283;52.504;13.358;2023-07-02T05:03:23;6.10;;;3.63;;
41568;SDS011;27283;52.504;13.358;2023-07-02T05:06:07;7.80;;;3.80;;
41568;SDS011;27283;52.504;13.358;2023-07-02T05:08:40;7.22;;;3.35;;
41568;SDS011;27283;52.504;13.358;2023-07-02T05:11:13;6.13;;;3.45;;
41568;SDS011;27283;52.504;13.358;2023-07-02T05:13:48;6.53;;;3.20;;
41568;SDS011;27283;52.504;13.358;2023-07-02T05:16:20;4.78;;;3.00;;
41568;SDS011;27283;52.504;13.358;2023-07-02T05:18:53;9.18;;;3.17;;
41568;SDS011;27283;52.504;13.358;2023-07-02T05:21:26;6.07;;;3.00;;
41568;SDS011;27283;52.504;13.358;2023-07-02T05:23:58;5.82;;;3.08;;
41568;SDS011;27283;52.504;13.358;2023-07-02T05:26:32;4.22;;;3.08;;
41568;SDS011;27283;52.504;13.358;2023-07-02T05:29:08;7.72;;;3.22;;
41568;SDS011;27283;52.504;13.358;2023-07-02T05:31:40;7.38;;;3.13;;
41568;SDS011;27283;52.504;13.358;2023-07-02T05:34:13;8.57;;;3.72;;
41568;SDS011;27283;52.504;13.358;2023-07-02T05:36:46;6.25;;;3.20;;
41568;SDS011;27283;52.504;13.358;2023-07-02T05:39:18;8.00;;;3.28;;
41568;SDS011;27283;52.504;13.358;2023-07-02T05:41:51;7.32;;;3.25;;
41568;SDS011;27283;52.504;13.358;2023-07-02T05:44:27;6.22;;;2.97;;
41568;SDS011;27283;52.504;13.358;2023-07-02T05:47:00;10.80;;;3.53;;
41568;SDS011;27283;52.504;13.358;2023-07-02T05:49:33;11.98;;;3.60;;
41568;SDS011;27283;52.504;13.358;2023-07-02T05:52:06;7.43;;;3.38;;
41568;SDS011;27283;52.504;13.358;2023-07-02T05:54:39;10.18;;;3.17;;
41568;SDS011;27283;52.504;13.358;2023-07-02T05:57:12;5.97;;;3.22;;
41568;SDS011;27283;52.504;13.358;2023-07-02T05:59:47;8.40;;;2.80;;
41568;SDS011;27283;52.504;13.358;2023-07-02T06:02:20;4.22;;;2.30;;
41568;SDS011;27283;52.504;13.358;2023-07-02T06:04:55;4.43;;;2.50;;
41568;SDS011;27283;52.504;13.358;2023-07-02T06:07:39;6.93;;;2.45;;
41568;SDS011;27283;52.504;13.358;2023-07-02T06:10:12;5.47;;;2.80;;
41568;SDS011;27283;52.504;13.358;2023-07-02T06:12:45;5.43;;;2.67;;
41568;SDS011;27283;52.504;13.358;2023-07-02T06:15:20;7.45;;;2.78;;
41568;SDS011;27283;52.504;13.358;2023-07-02T06:17:53;8.57;;;2.85;;
41568;SDS011;27283;52.504;13.358;2023-07-02T06:20:26;6.95;;;3.05;;
41568;SDS011;27283;52.504;13.358;2023-07-02T06:22:58;7.05;;;3.05;;
41568;SDS011;27283;52.504;13.358;2023-07-02T06:25:31;6.40;;;3.22;;
41568;SDS011;27283;52.504;13.358;2023-07-02T06:28:06;7.65;;;3.25;;
41568;SDS011;27283;52.504;13.358;2023-07-02T06:30:59;8.90;;;3.33;;
41568;SDS011;27283;52.504;13.358;2023-07-02T06:33:32;9.40;;;3.42;;
41568;SDS011;27283;52.504;13.358;2023-07-02T06:36:04;11.82;;;3.38;;
41568;SDS011;27283;52.504;13.358;2023-07-02T06:38:40;8.00;;;3.10;;
41568;SDS011;27283;52.504;13.358;2023-07-02T06:41:17;7.70;;;2.90;;
41568;SDS011;27283;52.504;13.358;2023-07-02T06:43:50;8.60;;;3.25;;
41568;SDS011;27283;52.504;13.358;2023-07-02T06:46:29;5.93;;;2.65;;
41568;SDS011;27283;52.504;13.358;2023-07-02T06:49:01;6.07;;;2.78;;
41568;SDS011;27283;52.504;13.358;2023-07-02T06:51:57;6.13;;;2.90;;
41568;SDS011;27283;52.504;13.358;2023-07-02T06:54:41;6.32;;;2.80;;
41568;SDS011;27283;52.504;13.358;2023-07-02T06:57:23;8.25;;;2.70;;
41568;SDS011;27283;52.504;13.358;2023-07-02T06:59:57;5.65;;;2.63;;
41568;SDS011;27283;52.504;13.358;2023-07-02T07:02:36;6.32;;;2.80;;
41568;SDS011;27283;52.504;13.358;2023-07-02T07:05:25;7.65;;;3.20;;
41568;SDS011;27283;52.504;13.358;2023-07-02T07:08:06;8.68;;;3.00;;
41568;SDS011;27283;52.504;13.358;2023-07-02T07:10:38;5.00;;;2.70;;
41568;SDS011;27283;52.504;13.358;2023-07-02T07:13:14;8.27;;;3.10;;
41568;SDS011;27283;52.504;13.358;2023-07-02T07:15:46;8.30;;;3.03;;
41568;SDS011;27283;52.504;13.358;2023-07-02T07:18:23;7.72;;;3.38;;
41568;SDS011;27283;52.504;13.358;2023-07-02T07:21:00;7.57;;;2.95;;
41568;SDS011;27283;52.504;13.358;2023-07-02T07:23:32;5.70;;;2.78;;
41568;SDS011;27283;52.504;13.358;2023-07-02T07:26:05;8.18;;;3.10;;
41568;SDS011;27283;52.504;13.358;2023-07-02T07:28:37;6.22;;;3.00;;
41568;SDS011;27283;52.504;13.358;2023-07-02T07:31:10;6.47;;;2.90;;
41568;SDS011;27283;52.504;13.358;2023-07-02T07:33:45;6.40;;;2.78;;
41568;SDS011;27283;52.504;13.358;2023-07-02T07:36:18;9.55;;;2.97;;
41568;SDS011;27283;52.504;13.358;2023-07-02T07:38:50;8.38;;;3.53;;
41568;SDS011;27283;52.504;13.358;2023-07-02T07:41:26;6.30;;;3.00;;
41568;SDS011;27283;52.504;13.358;2023-07-02T07:43:58;7.25;;;2.95;;
41568;SDS011;27283;52.504;13.358;2023-07-02T07:46:31;5.90;;;3.33;;
41568;SDS011;27283;52.504;13.358;2023-07-02T07:49:06;8.25;;;2.90;;
41568;SDS011;27283;52.504;13.358;2023-07-02T07:51:39;7.00;;;3.40;;
41568;SDS011;27283;52.504;13.358;2023-07-02T07:54:31;7.13;;;3.40;;
41568;SDS011;27283;52.504;13.358;2023-07-02T07:57:52;5.70;;;3.08;;
41568;SDS011;27283;52.504;13.358;2023-07-02T08:00:25;9.70;;;3.00;;
41568;SDS011;27283;52.504;13.358;2023-07-02T08:03:10;6.95;;;3.03;;
41568;SDS011;27283;52.504;13.358;2023-07-02T08:06:54;6.00;;;3.33;;
41568;SDS011;27283;52.504;13.358;2023-07-02T08:09:27;6.78;;;3.15;;
41568;SDS011;27283;52.504;13.358;2023-07-02T08:12:01;9.00;;;3.85;;
41568;SDS011;27283;52.504;13.358;2023-07-02T08:14:34;8.13;;;3.97;;
41568;SDS011;27283;52.504;13.358;2023-07-02T08:17:09;6.00;;;3.60;;
41568;SDS011;27283;52.504;13.358;2023-07-02T08:19:41;9.65;;;3.50;;
41568;SDS011;27283;52.504;13.358;2023-07-02T08:22:19;5.70;;;3.40;;
41568;SDS011;27283;52.504;13.358;2023-07-02T08:24:55;6.60;;;4.00;;
41568;SDS011;27283;52.504;13.358;2023-07-02T08:27:29;10.88;;;4.10;;
41568;SDS011;27283;52.504;13.358;2023-07-02T08:30:01;9.95;;;3.50;;
41568;SDS011;27283;52.504;13.358;2023-07-02T08:32:35;9.93;;;4.30;;
41568;SDS011;27283;52.504;13.358;2023-07-02T08:35:07;9.40;;;3.72;;
41568;SDS011;27283;52.504;13.358;2023-07-02T08:37:42;7.25;;;3.70;;
41568;SDS011;27283;52.504;13.358;2023-07-02T08:40:18;9.65;;;4.28;;
41568;SDS011;27283;52.504;13.358;2023-07-02T08:42:51;11.15;;;4.10;;
41568;SDS011;27283;52.504;13.358;2023-07-02T08:45:27;8.32;;;3.97;;
41568;SDS011;27283;52.504;13.358;2023-07-02T08:48:01;10.07;;;4.38;;
41568;SDS011;27283;52.504;13.358;2023-07-02T08:50:34;7.38;;;3.90;;
41568;SDS011;27283;52.504;13.358;2023-07-02T08:53:10;10.32;;;4.00;;
41568;SDS011;27283;52.504;13.358;2023-07-02T08:56:03;8.25;;;4.05;;
41568;SDS011;27283;52.504;13.358;2023-07-02T08:58:38;11.10;;;4.10;;
41568;SDS011;27283;52.504;13.358;2023-07-02T09:01:24;8.25;;;4.05;;
41568;SDS011;27283;52.504;13.358;2023-07-02T09:03:58;15.05;;;6.78;;
41568;SDS011;27283;52.504;13.358;2023-07-02T09:06:34;14.27;;;5.53;;
41568;SDS011;27283;52.504;13.358;2023-07-02T09:09:09;11.48;;;5.20;;
41568;SDS011;27283;52.504;13.358;2023-07-02T09:11:48;9.07;;;4.50;;
41568;SDS011;27283;52.504;13.358;2023-07-02T09:14:25;8.45;;;4.47;;
41568;SDS011;27283;52.504;13.358;2023-07-02T09:17:04;9.75;;;4.35;;
41568;SDS011;27283;52.504;13.358;2023-07-02T09:19:49;10.07;;;4.68;;
41568;SDS011;27283;52.504;13.358;2023-07-02T09:22:22;12.60;;;4.45;;
41568;SDS011;27283;52.504;13.358;2023-07-02T09:25:05;12.27;;;4.82;;
41568;SDS011;27283;52.504;13.358;2023-07-02T09:27:43;11.52;;;5.05;;
41568;SDS011;27283;52.504;13.358;2023-07-02T09:30:16;8.25;;;4.60;;
41568;SDS011;27283;52.504;13.358;2023-07-02T09:32:48;12.93;;;5.32;;
41568;SDS011;27283;52.504;13.358;2023-07-02T09:35:23;10.13;;;4.65;;
41568;SDS011;27283;52.504;13.358;2023-07-02T09:37:56;11.93;;;5.00;;
41568;SDS011;27283;52.504;13.358;2023-07-02T09:40:31;9.82;;;4.55;;
41568;SDS011;27283;52.504;13.358;2023-07-02T09:43:04;12.10;;;5.30;;
41568;SDS011;27283;52.504;13.358;2023-07-02T09:45:37;14.73;;;5.30;;
41568;SDS011;27283;52.504;13.358;2023-07-02T09:48:10;10.35;;;5.30;;
41568;SDS011;27283;52.504;13.358;2023-07-02T09:50:45;13.40;;;5.38;;
41568;SDS011;27283;52.504;13.358;2023-07-02T09:53:22;14.25;;;5.45;;
41568;SDS011;27283;52.504;13.358;2023-07-02T09:56:19;14.10;;;5.30;;
41568;SDS011;27283;52.504;13.358;2023-07-02T09:58:52;14.75;;;5.65;;
41568;SDS011;27283;52.504;13.358;2023-07-02T10:01:26;15.05;;;5.88;;
41568;SDS011;27283;52.504;13.358;2023-07-02T10:03:58;14.07;;;5.90;;
41568;SDS011;27283;52.504;13.358;2023-07-02T10:06:46;18.83;;;5.72;;
41568;SDS011;27283;52.504;13.358;2023-07-02T10:09:20;14.10;;;6.13;;
41568;SDS011;27283;52.504;13.358;2023-07-02T10:11:56;14.40;;;6.15;;
41568;SDS011;27283;52.504;13.358;2023-07-02T10:14:40;15.63;;;6.10;;
41568;SDS011;27283;52.504;13.358;2023-07-02T10:17:24;16.85;;;5.90;;
41568;SDS011;27283;52.504;13.358;2023-07-02T10:20:02;17.80;;;5.82;;
41568;SDS011;27283;52.504;13.358;2023-07-02T10:22:42;16.20;;;6.68;;
41568;SDS011;27283;52.504;13.358;2023-07-02T10:25:24;17.55;;;6.22;;
41568;SDS011;27283;52.504;13.358;2023-07-02T10:28:01;17.05;;;6.05;;
41568;SDS011;27283;52.504;13.358;2023-07-02T10:30:44;16.38;;;5.68;;
41568;SDS011;27283;52.504;13.358;2023-07-02T10:33:19;16.15;;;6.15;;
41568;SDS011;27283;52.504;13.358;2023-07-02T10:35:52;19.48;;;6.93;;
41568;SDS011;27283;52.504;13.358;2023-07-02T10:38:28;17.30;;;6.15;;
41568;SDS011;27283;52.504;13.358;2023-07-02T10:41:02;17.83;;;6.35;;
41568;SDS011;27283;52.504;13.358;2023-07-02T10:43:38;16.58;;;6.38;;
41568;SDS011;27283;52.504;13.358;2023-07-02T10:46:10;18.70;;;6.00;;
41568;SDS011;27283;52.504;13.358;2023-07-02T10:48:54;20.40;;;6.32;;
41568;SDS011;27283;52.504;13.358;2023-07-02T10:51:29;20.75;;;7.25;;
41568;SDS011;27283;52.504;13.358;2023-07-02T10:54:03;18.77;;;6.35;;
41568;SDS011;27283;52.504;13.358;2023-07-02T10:56:35;15.63;;;6.80;;
41568;SDS011;27283;52.504;13.358;2023-07-02T10:59:10;24.90;;;7.53;;
41568;SDS011;27283;52.504;13.358;2023-07-02T11:01:43;16.67;;;6.45;;
41568;SDS011;27283;52.504;13.358;2023-07-02T11:04:16;15.95;;;6.60;;
41568;SDS011;27283;52.504;13.358;2023-07-02T11:06:48;15.85;;;6.53;;
41568;SDS011;27283;52.504;13.358;2023-07-02T11:09:28;21.45;;;6.82;;
41568;SDS011;27283;52.504;13.358;2023-07-02T11:12:00;19.17;;;7.07;;
41568;SDS011;27283;52.504;13.358;2023-07-02T11:14:40;18.08;;;6.90;;
41568;SDS011;27283;52.504;13.358;2023-07-02T11:17:12;17.60;;;6.30;;
41568;SDS011;27283;52.504;13.358;2023-07-02T11:19:50;25.50;;;7.10;;
41568;SDS011;27283;52.504;13.358;2023-07-02T11:22:31;20.35;;;6.85;;
41568;SDS011;27283;52.504;13.358;2023-07-02T11:25:10;19.85;;;7.50;;
41568;SDS011;27283;52.504;13.358;2023-07-02T11:27:44;16.60;;;7.38;;
41568;SDS011;27283;52.504;13.358;2023-07-02T11:30:20;17.23;;;7.03;;
41568;SDS011;27283;52.504;13.358;2023-07-02T11:32:54;23.88;;;7.22;;
41568;SDS011;27283;52.504;13.358;2023-07-02T11:35:33;21.15;;;6.75;;
41568;SDS011;27283;52.504;13.358;2023-07-02T11:38:06;25.05;;;7.25;;
41568;SDS011;27283;52.504;13.358;2023-07-02T11:40:40;16.15;;;6.53;;
41568;SDS011;27283;52.504;13.358;2023-07-02T11:43:12;17.20;;;6.63;;
41568;SDS011;27283;52.504;13.358;2023-07-02T11:45:47;22.08;;;7.20;;
41568;SDS011;27283;52.504;13.358;2023-07-02T11:48:20;17.80;;;6.85;;
41568;SDS011;27283;52.504;13.358;2023-07-02T11:50:53;19.35;;;7.07;;
41568;SDS011;27283;52.504;13.358;2023-07-02T11:53:25;17.50;;;6.60;;
41568;SDS011;27283;52.504;13.358;2023-07-02T11:55:58;18.60;;;6.57;;
41568;SDS011;27283;52.504;13.358;2023-07-02T11:58:30;19.77;;;6.55;;
41568;SDS011;27283;52.504;13.358;2023-07-02T12:01:06;17.60;;;6.70;;
41568;SDS011;27283;52.504;13.358;2023-07-02T12:03:38;16.92;;;6.70;;
41568;SDS011;27283;52.504;13.358;2023-07-02T12:06:11;16.88;;;6.50;;
41568;SDS011;27283;52.504;13.358;2023-07-02T12:08:44;17.67;;;6.93;;
41568;SDS011;27283;52.504;13.358;2023-07-02T12:11:18;20.17;;;6.97;;
41568;SDS011;27283;52.504;13.358;2023-07-02T12:13:51;17.52;;;6.63;;
41568;SDS011;27283;52.504;13.358;2023-07-02T12:16:26;20.52;;;6.60;;
41568;SDS011;27283;52.504;13.358;2023-07-02T12:19:05;19.25;;;7.28;;
41568;SDS011;27283;52.504;13.358;2023-07-02T12:21:39;19.80;;;6.97;;
41568;SDS011;27283;52.504;13.358;2023-07-02T12:24:12;20.58;;;7.18;;
41568;SDS011;27283;52.504;13.358;2023-07-02T12:26:51;22.05;;;7.35;;
41568;SDS011;27283;52.504;13.358;2023-07-02T12:29:25;18.55;;;6.95;;
41568;SDS011;27283;52.504;13.358;2023-07-02T12:32:05;27.73;;;11.23;;
41568;SDS011;27283;52.504;13.358;2023-07-02T12:34:41;19.63;;;7.63;;
41568;SDS011;27283;52.504;13.358;2023-07-02T12:37:15;18.67;;;7.40;;
41568;SDS011;27283;52.504;13.358;2023-07-02T12:39:50;20.15;;;6.82;;
41568;SDS011;27283;52.504;13.358;2023-07-02T12:42:28;20.50;;;7.53;;
41568;SDS011;27283;52.504;13.358;2023-07-02T12:45:03;15.10;;;6.53;;
41568;SDS011;27283;52.504;13.358;2023-07-02T12:47:51;15.13;;;6.88;;
41568;SDS011;27283;52.504;13.358;2023-07-02T12:50:25;22.10;;;7.20;;
41568;SDS011;27283;52.504;13.358;2023-07-02T12:52:58;18.45;;;6.97;;
41568;SDS011;27283;52.504;13.358;2023-07-02T12:55:32;21.50;;;7.45;;
41568;SDS011;27283;52.504;13.358;2023-07-02T12:58:05;20.70;;;7.88;;
41568;SDS011;27283;52.504;13.358;2023-07-02T13:00:49;16.55;;;6.68;;
41568;SDS011;27283;52.504;13.358;2023-07-02T13:03:32;26.33;;;8.10;;
41568;SDS011;27283;52.504;13.358;2023-07-02T13:06:06;18.90;;;7.18;;
41568;SDS011;27283;52.504;13.358;2023-07-02T13:08:39;20.60;;;7.80;;
41568;SDS011;27283;52.504;13.358;2023-07-02T13:11:11;17.35;;;7.18;;
41568;SDS011;27283;52.504;13.358;2023-07-02T13:13:44;18.55;;;7.03;;
41568;SDS011;27283;52.504;13.358;2023-07-02T13:16:16;21.13;;;7.28;;
41568;SDS011;27283;52.504;13.358;2023-07-02T13:18:57;25.25;;;7.30;;
41568;SDS011;27283;52.504;13.358;2023-07-02T13:21:30;21.05;;;7.00;;
41568;SDS011;27283;52.504;13.358;2023-07-02T13:24:04;25.45;;;7.28;;
41568;SDS011;27283;52.504;13.358;2023-07-02T13:26:36;19.08;;;7.00;;
41568;SDS011;27283;52.504;13.358;2023-07-02T13:29:13;22.55;;;7.90;;
41568;SDS011;27283;52.504;13.358;2023-07-02T13:31:46;21.20;;;7.10;;
41568;SDS011;27283;52.504;13.358;2023-07-02T13:34:22;18.13;;;6.85;;
41568;SDS011;27283;52.504;13.358;2023-07-02T13:40:04;19.90;;;6.72;;
41568;SDS011;27283;52.504;13.358;2023-07-02T13:42:41;21.38;;;7.15;;
41568;SDS011;27283;52.504;13.358;2023-07-02T13:45:14;22.90;;;7.00;;
41568;SDS011;27283;52.504;13.358;2023-07-02T13:47:47;21.92;;;7.10;;
41568;SDS011;27283;52.504;13.358;2023-07-02T13:50:23;20.50;;;6.78;;
41568;SDS011;27283;52.504;13.358;2023-07-02T13:52:55;20.45;;;6.78;;
41568;SDS011;27283;52.504;13.358;2023-07-02T13:55:28;20.35;;;6.82;;
41568;SDS011;27283;52.504;13.358;2023-07-02T13:58:01;17.48;;;6.88;;
41568;SDS011;27283;52.504;13.358;2023-07-02T14:00:36;20.33;;;7.38;;
41568;SDS011;27283;52.504;13.358;2023-07-02T14:03:08;19.77;;;7.63;;
41568;SDS011;27283;52.504;13.358;2023-07-02T14:05:41;33.38;;;15.80;;
41568;SDS011;27283;52.504;13.358;2023-07-02T14:08:14;22.00;;;7.32;;
41568;SDS011;27283;52.504;13.358;2023-07-02T14:10:49;20.45;;;7.47;;
41568;SDS011;27283;52.504;13.358;2023-07-02T14:13:21;17.80;;;6.80;;
41568;SDS011;27283;52.504;13.358;2023-07-02T14:15:57;19.70;;;7.32;;
41568;SDS011;27283;52.504;13.358;2023-07-02T14:18:36;22.05;;;7.30;;
41568;SDS011;27283;52.504;13.358;2023-07-02T14:21:08;23.40;;;6.85;;
41568;SDS011;27283;52.504;13.358;2023-07-02T14:23:41;18.60;;;7.40;;
41568;SDS011;27283;52.504;13.358;2023-07-02T14:26:22;18.10;;;6.25;;
41568;SDS011;27283;52.504;13.358;2023-07-02T14:28:54;15.20;;;6.95;;
41568;SDS011;27283;52.504;13.358;2023-07-02T14:31:29;17.52;;;6.53;;
41568;SDS011;27283;52.504;13.358;2023-07-02T14:34:01;18.50;;;6.88;;
41568;SDS011;27283;52.504;13.358;2023-07-02T14:36:34;17.55;;;6.78;;
41568;SDS011;27283;52.504;13.358;2023-07-02T14:39:07;18.50;;;6.25;;
41568;SDS011;27283;52.504;13.358;2023-07-02T14:41:41;18.88;;;6.97;;
41568;SDS011;27283;52.504;13.358;2023-07-02T14:44:13;19.27;;;6.95;;
41568;SDS011;27283;52.504;13.358;2023-07-02T14:46:52;17.67;;;6.55;;
41568;SDS011;27283;52.504;13.358;2023-07-02T14:49:24;19.73;;;6.40;;
41568;SDS011;27283;52.504;13.358;2023-07-02T14:51:57;17.15;;;6.72;;
41568;SDS011;27283;52.504;13.358;2023-07-02T14:54:34;19.55;;;6.70;;
41568;SDS011;27283;52.504;13.358;2023-07-02T14:57:08;16.17;;;6.82;;
41568;SDS011;27283;52.504;13.358;2023-07-02T14:59:41;24.02;;;7.20;;
41568;SDS011;27283;52.504;13.358;2023-07-02T15:02:17;18.33;;;6.75;;
41568;SDS011;27283;52.504;13.358;2023-07-02T15:04:50;15.90;;;6.60;;
41568;SDS011;27283;52.504;13.358;2023-07-02T15:07:23;20.08;;;7.10;;
41568;SDS011;27283;52.504;13.358;2023-07-02T15:09:56;19.33;;;6.35;;
41568;SDS011;27283;52.504;13.358;2023-07-02T15:12:29;19.13;;;6.72;;
41568;SDS011;27283;52.504;13.358;2023-07-02T15:15:01;15.20;;;6.20;;
41568;SDS011;27283;52.504;13.358;2023-07-02T15:17:37;18.38;;;6.47;;